Time;durP1;ratioP1;P1;durP2;ratioP2;P2;SDS_P1;SDS_P2;PMS_P1;PMS_P2;Temp;Humidity;BMP_temperature;BMP_pressure;BME280_temperature;BME280_humidity;BME280_pressure;Samples;Min_cycle;Max_cycle;Signal;HPM_P1;HPM_P2
2022/12/31 00:00:37;;;;;;;0.22;0.22;;;;;;;13.45;80.56;100292.72;5106739;28;20047;-80
2022/12/31 00:03:05;;;;;;;0.30;0.30;;;;;;;13.49;80.63;100297.00;5103361;28;20030;-81
2022/12/31 00:05:32;;;;;;;0.10;0.10;;;;;;;13.47;80.88;100295.31;5098327;28;20371;-81
2022/12/31 00:08:00;;;;;;;0.10;0.10;;;;;;;13.39;81.81;100303.63;5097142;28;20648;-81
2022/12/31 00:10:26;;;;;;;0.00;0.00;;;;;;;13.43;81.65;100303.44;5095857;28;20440;-81
2022/12/31 00:12:52;;;;;;;0.10;0.10;;;;;;;13.46;81.52;100317.53;5097240;28;20024;-81
2022/12/31 00:15:19;;;;;;;0.10;0.10;;;;;;;13.48;81.09;100297.91;5096072;28;20425;-81
2022/12/31 00:17:45;;;;;;;0.20;0.20;;;;;;;13.44;81.89;100306.97;5096416;28;20032;-81
2022/12/31 00:20:11;;;;;;;0.00;0.00;;;;;;;13.49;81.62;100302.31;5095652;28;20024;-80
2022/12/31 00:22:37;;;;;;;0.10;0.10;;;;;;;13.55;81.02;100304.72;5095681;28;20020;-81
2022/12/31 00:25:04;;;;;;;0.10;0.10;;;;;;;13.48;81.32;100319.22;5096447;28;20031;-81
2022/12/31 00:27:31;;;;;;;0.10;0.10;;;;;;;13.52;81.24;100298.66;5095279;28;20481;-81
2022/12/31 00:29:57;;;;;;;0.10;0.10;;;;;;;13.54;81.19;100318.97;5096371;28;20035;-81
2022/12/31 00:32:25;;;;;;;0.10;0.10;;;;;;;13.50;81.04;100317.34;5095578;28;20059;-81
2022/12/31 00:34:51;;;;;;;0.10;0.10;;;;;;;13.47;81.23;100317.50;5096125;28;20489;-81
2022/12/31 00:37:17;;;;;;;0.10;0.10;;;;;;;13.52;80.94;100315.50;5095842;28;20069;-81
2022/12/31 00:39:43;;;;;;;0.00;0.00;;;;;;;13.55;80.87;100314.53;5095279;28;20106;-80
2022/12/31 00:42:09;;;;;;;0.30;0.30;;;;;;;13.53;80.85;100305.72;5096334;28;20032;-81
2022/12/31 00:44:35;;;;;;;0.10;0.10;;;;;;;13.43;80.88;100302.56;5096063;28;20036;-81
2022/12/31 00:47:01;;;;;;;0.10;0.10;;;;;;;13.43;80.71;100300.78;5104067;28;20344;-81
2022/12/31 00:49:27;;;;;;;0.10;0.10;;;;;;;13.42;80.64;100303.50;5108594;28;20024;-80
2022/12/31 00:51:53;;;;;;;0.10;0.10;;;;;;;13.46;80.40;100294.47;5112143;28;20035;-79
2022/12/31 00:54:19;;;;;;;0.10;0.10;;;;;;;13.38;80.39;100296.56;5113273;28;20100;-81
2022/12/31 00:56:45;;;;;;;0.10;0.10;;;;;;;13.35;80.25;100296.66;5113594;28;20137;-81
2022/12/31 00:59:11;;;;;;;0.10;0.10;;;;;;;13.36;80.06;100290.44;5110019;28;20042;-81
2022/12/31 01:01:39;;;;;;;0.10;0.10;;;;;;;13.30;80.05;100302.16;5114443;28;20077;-81
2022/12/31 01:04:11;;;;;;;0.10;0.10;;;;;;;13.30;80.08;100306.63;5114241;28;20038;-80
2022/12/31 01:06:38;;;;;;;0.10;0.10;;;;;;;13.31;80.47;100305.69;5113626;28;20035;-81
2022/12/31 01:09:05;;;;;;;0.10;0.10;;;;;;;13.32;80.21;100291.47;5114496;28;20308;-81
2022/12/31 01:11:33;;;;;;;0.30;0.30;;;;;;;13.32;80.20;100304.75;5114529;28;20028;-81
2022/12/31 01:16:41;;;;;;;0.10;0.10;;;;;;;13.30;80.05;100296.00;5072443;28;20383;-82
2022/12/31 01:19:11;;;;;;;0.10;0.10;;;;;;;13.33;80.10;100293.19;5070654;28;20028;-82
2022/12/31 01:21:39;;;;;;;0.10;0.10;;;;;;;13.31;80.37;100293.25;5071851;28;20037;-82
2022/12/31 01:24:07;;;;;;;0.10;0.10;;;;;;;13.32;80.14;100292.34;5072832;28;20021;-83
2022/12/31 01:26:33;;;;;;;0.10;0.10;;;;;;;13.34;79.89;100287.81;5072972;28;20493;-82
2022/12/31 01:28:59;;;;;;;0.20;0.20;;;;;;;13.27;80.20;100305.81;5072249;28;20037;-82
2022/12/31 01:31:26;;;;;;;0.10;0.10;;;;;;;13.23;80.40;100296.25;5073465;28;20039;-83
2022/12/31 01:33:52;;;;;;;0.10;0.10;;;;;;;13.24;80.43;100300.59;5072362;28;20089;-82
2022/12/31 01:36:21;;;;;;;0.10;0.10;;;;;;;13.25;80.28;100305.00;5071924;28;20075;-82
2022/12/31 01:38:47;;;;;;;0.10;0.10;;;;;;;13.24;80.25;100303.25;5071766;28;20024;-82
2022/12/31 01:41:17;;;;;;;0.17;0.17;;;;;;;13.24;80.20;100305.94;5072417;28;20481;-82
2022/12/31 01:46:57;;;;;;;0.10;0.10;;;;;;;13.21;80.48;100314.03;5112092;27;20335;-82
2022/12/31 01:52:29;;;;;;;0.10;0.10;;;;;;;13.22;79.99;100305.16;5111955;27;20379;-82
2022/12/31 01:55:02;;;;;;;0.10;0.10;;;;;;;13.13;80.16;100300.16;5117466;28;20044;-81
2022/12/31 01:57:28;;;;;;;0.10;0.10;;;;;;;13.05;80.11;100310.25;5119260;28;20433;-82
2022/12/31 01:59:55;;;;;;;0.00;0.00;;;;;;;13.04;79.83;100296.06;5117973;28;20028;-81
2022/12/31 02:02:21;;;;;;;0.10;0.10;;;;;;;12.99;79.74;100284.75;5115721;28;20039;-81
2022/12/31 02:04:49;;;;;;;0.10;0.10;;;;;;;12.99;80.00;100273.28;5113138;28;20028;-81
2022/12/31 02:07:16;;;;;;;0.10;0.10;;;;;;;12.93;80.23;100269.94;5113232;28;20028;-81
2022/12/31 02:09:42;;;;;;;0.10;0.10;;;;;;;12.92;80.02;100270.84;5112664;28;20039;-81
2022/12/31 02:12:09;;;;;;;0.17;0.17;;;;;;;12.91;79.67;100277.09;5112177;28;20024;-81
2022/12/31 02:14:40;;;;;;;0.10;0.10;;;;;;;12.85;80.01;100274.66;5112819;28;20028;-80
2022/12/31 02:17:32;;;;;;;0.10;0.10;;;;;;;12.89;79.61;100280.72;5112928;28;20036;-81
2022/12/31 02:23:14;;;;;;;0.10;0.10;;;;;;;12.83;80.11;100286.28;5119078;27;20713;-81
2022/12/31 02:26:20;;;;;;;0.10;0.10;;;;;;;12.81;80.11;100307.63;5113806;28;20071;-81
2022/12/31 02:29:19;;;;;;;0.10;0.10;;;;;;;12.80;80.05;100319.16;5112263;28;20074;-81
2022/12/31 02:31:56;;;;;;;0.10;0.10;;;;;;;12.75;80.51;100314.03;5113947;28;20561;-81
2022/12/31 02:34:33;;;;;;;0.10;0.10;;;;;;;12.74;80.41;100327.38;5112982;28;20034;-81
2022/12/31 02:37:03;;;;;;;1.05;1.05;;;;;;;12.71;80.39;100328.34;5112853;28;20406;-81
2022/12/31 02:39:31;;;;;;;0.10;0.10;;;;;;;12.76;80.41;100341.47;5111854;28;20466;-82
2022/12/31 02:42:00;;;;;;;0.10;0.10;;;;;;;12.74;80.30;100320.25;5111182;28;20019;-82
2022/12/31 02:50:25;;;;;;;0.10;0.10;;;;;;;12.76;80.11;100338.78;5069584;28;20387;-81
2022/12/31 02:56:08;;;;;;;0.10;0.10;;;;;;;12.74;79.96;100349.50;5070279;28;20049;-81
2022/12/31 03:04:41;;;;;;;;;;;;;;;12.65;80.50;100341.88;5071262;28;20120;-81
2022/12/31 03:06:58;;;;;;;0.10;0.10;;;;;;;12.53;80.20;100340.50;5070687;28;20102;-82
2022/12/31 03:09:25;;;;;;;0.10;0.10;;;;;;;12.50;80.49;100355.69;5069675;28;20039;-81
2022/12/31 03:14:37;;;;;;;0.08;0.08;;;;;;;12.53;80.37;100344.97;5069256;28;20090;-81
2022/12/31 03:17:03;;;;;;;0.10;0.10;;;;;;;12.48;80.61;100342.47;5070446;28;20036;-81
2022/12/31 03:22:30;;;;;;;0.10;0.10;;;;;;;12.41;80.44;100347.16;5071586;28;20041;-81
2022/12/31 03:27:46;;;;;;;0.10;0.10;;;;;;;12.35;80.54;100338.50;5072711;28;20045;-81
2022/12/31 03:30:15;;;;;;;0.00;0.00;;;;;;;12.35;80.30;100333.19;5071805;28;20039;-81
2022/12/31 03:32:43;;;;;;;0.10;0.10;;;;;;;12.35;80.30;100335.84;5071176;28;20024;-81
2022/12/31 03:35:10;;;;;;;0.10;0.10;;;;;;;12.29;80.56;100327.19;5074505;28;20047;-80
2022/12/31 03:37:38;;;;;;;0.10;0.10;;;;;;;12.25;80.21;100322.91;5081662;28;20036;-80
2022/12/31 03:40:06;;;;;;;0.10;0.10;;;;;;;12.24;80.11;100320.31;5075222;28;20016;-81
2022/12/31 03:42:32;;;;;;;0.10;0.10;;;;;;;12.19;80.26;100311.66;5071082;28;20048;-81
2022/12/31 03:44:59;;;;;;;0.10;0.10;;;;;;;12.17;80.69;100318.78;5070961;28;20025;-81
2022/12/31 03:47:25;;;;;;;0.10;0.10;;;;;;;12.12;80.16;100303.91;5071325;28;20059;-82
2022/12/31 03:49:51;;;;;;;0.10;0.10;;;;;;;12.14;80.34;100301.19;5069507;28;20032;-81
2022/12/31 03:52:17;;;;;;;0.10;0.10;;;;;;;12.13;80.15;100294.13;5071421;28;20171;-81
2022/12/31 03:54:43;;;;;;;0.10;0.10;;;;;;;12.15;80.09;100300.28;5070882;28;20033;-81
2022/12/31 03:57:09;;;;;;;0.30;0.30;;;;;;;12.13;80.50;100294.13;5070556;28;20052;-81
2022/12/31 03:59:35;;;;;;;0.10;0.10;;;;;;;12.11;80.50;100301.28;5070505;28;20043;-81
2022/12/31 04:02:02;;;;;;;0.10;0.10;;;;;;;12.07;80.50;100310.28;5075774;28;20129;-81
2022/12/31 04:04:28;;;;;;;0.10;0.10;;;;;;;12.15;80.17;100310.91;5072094;28;20021;-81
2022/12/31 04:06:54;;;;;;;0.10;0.10;;;;;;;12.14;80.41;100325.09;5070290;28;20078;-81
2022/12/31 04:09:20;;;;;;;0.13;0.13;;;;;;;12.15;80.38;100300.28;5069909;28;20031;-82
2022/12/31 04:11:46;;;;;;;0.10;0.10;;;;;;;12.15;80.69;100302.94;5061323;28;20037;-82
2022/12/31 04:14:12;;;;;;;0.10;0.10;;;;;;;12.16;80.41;100304.63;5055731;28;20025;-81
2022/12/31 04:16:38;;;;;;;0.10;0.10;;;;;;;12.17;80.69;100301.06;5056670;28;20033;-81
2022/12/31 04:19:04;;;;;;;0.10;0.10;;;;;;;12.16;80.54;100301.97;5056205;28;20029;-81
2022/12/31 04:21:30;;;;;;;0.10;0.10;;;;;;;12.13;80.68;100308.28;5056507;28;20047;-81
2022/12/31 04:23:57;;;;;;;0.10;0.10;;;;;;;12.10;80.65;100311.03;5055304;28;20052;-82
2022/12/31 04:26:23;;;;;;;0.10;0.10;;;;;;;12.10;80.59;100310.16;5055798;28;20059;-81
2022/12/31 04:28:49;;;;;;;0.10;0.10;;;;;;;12.09;80.83;100306.66;5054773;28;20029;-81
2022/12/31 04:31:15;;;;;;;0.10;0.10;;;;;;;12.09;80.76;100308.44;5060754;28;20031;-81
2022/12/31 04:33:41;;;;;;;0.10;0.10;;;;;;;12.10;80.67;100302.19;5060998;28;20021;-82
2022/12/31 04:36:08;;;;;;;0.30;0.30;;;;;;;12.10;80.55;100315.47;5058780;28;20048;-81
2022/12/31 04:38:34;;;;;;;0.10;0.10;;;;;;;12.09;80.41;100306.66;5057436;28;20036;-81
2022/12/31 04:41:15;;;;;;;0.10;0.10;;;;;;;12.08;80.43;100296.09;5054946;28;20028;-81
2022/12/31 04:43:43;;;;;;;0.10;0.10;;;;;;;12.10;80.68;100296.88;5055296;28;20511;-82
2022/12/31 04:46:09;;;;;;;0.10;0.10;;;;;;;12.10;80.77;100296.88;5054871;28;20037;-81
2022/12/31 04:48:35;;;;;;;0.10;0.10;;;;;;;12.11;80.25;100303.94;5054033;28;20043;-81
2022/12/31 04:51:02;;;;;;;0.10;0.10;;;;;;;12.12;80.59;100309.22;5055141;28;20040;-82
2022/12/31 04:53:29;;;;;;;0.20;0.20;;;;;;;12.14;80.28;100311.81;5056222;28;20029;-81
2022/12/31 04:55:55;;;;;;;0.10;0.10;;;;;;;12.15;80.87;100302.94;5060914;28;20053;-81
2022/12/31 04:58:22;;;;;;;0.10;0.10;;;;;;;12.15;80.27;100300.28;5066418;28;20028;-81
2022/12/31 05:00:51;;;;;;;0.10;0.10;;;;;;;12.20;80.66;100311.59;5060784;28;20029;-81
2022/12/31 05:03:18;;;;;;;0.10;0.10;;;;;;;12.19;80.93;100304.53;5058445;28;20036;-81
2022/12/31 05:05:44;;;;;;;0.10;0.10;;;;;;;12.23;80.80;100307.97;5058537;28;20025;-82
2022/12/31 05:08:11;;;;;;;0.10;0.10;;;;;;;12.24;80.53;100310.56;5058098;28;20029;-81
2022/12/31 05:10:42;;;;;;;0.13;0.13;;;;;;;12.25;81.05;100309.63;5056214;28;20033;-81
2022/12/31 05:13:08;;;;;;;0.10;0.10;;;;;;;12.26;81.17;100314.03;5057446;28;20172;-81
2022/12/31 05:15:35;;;;;;;0.10;0.10;;;;;;;12.29;81.75;100311.25;5056155;28;20032;-81
2022/12/31 05:18:01;;;;;;;0.10;0.10;;;;;;;12.36;81.95;100311.03;5055126;28;20037;-81
2022/12/31 05:20:28;;;;;;;1.02;1.02;;;;;;;12.37;82.36;100307.47;5053984;28;20031;-81
2022/12/31 05:22:54;;;;;;;0.10;0.10;;;;;;;12.40;82.15;100308.22;5053116;28;20056;-81
2022/12/31 05:25:20;;;;;;;0.10;0.10;;;;;;;12.47;82.08;100308.84;5054349;28;20094;-81
2022/12/31 05:27:47;;;;;;;0.20;0.20;;;;;;;12.51;82.50;100315.81;5053928;28;20056;-82
2022/12/31 05:30:13;;;;;;;0.10;0.10;;;;;;;12.60;81.91;100309.28;5053050;28;20029;-81
2022/12/31 05:32:40;;;;;;;0.10;0.10;;;;;;;12.64;82.33;100315.38;5053848;28;20091;-81
2022/12/31 05:35:06;;;;;;;0.10;0.10;;;;;;;12.67;82.49;100310.78;5053852;28;20032;-81
2022/12/31 05:37:33;;;;;;;0.10;0.10;;;;;;;12.75;82.63;100302.53;5053896;28;20441;-81
2022/12/31 05:39:59;;;;;;;0.10;0.10;;;;;;;12.74;83.06;100308.78;5052756;28;20116;-81
2022/12/31 05:42:27;;;;;;;0.10;0.10;;;;;;;12.81;82.50;100304.06;5053495;28;20045;-81
2022/12/31 05:44:53;;;;;;;0.10;0.10;;;;;;;12.79;83.10;100305.00;5053439;28;20056;-80
2022/12/31 05:47:20;;;;;;;0.10;0.10;;;;;;;12.88;82.24;100303.78;5053892;28;20029;-81
2022/12/31 05:49:46;;;;;;;0.10;0.10;;;;;;;12.85;83.19;100314.53;5052462;28;20028;-81
2022/12/31 05:52:12;;;;;;;0.08;0.08;;;;;;;12.91;82.59;100298.34;5053459;28;20123;-81
2022/12/31 05:54:38;;;;;;;0.10;0.10;;;;;;;12.93;82.37;100291.19;5053552;28;20029;-81
2022/12/31 05:57:05;;;;;;;0.10;0.10;;;;;;;12.99;82.45;100294.53;5053291;28;20036;-81
2022/12/31 05:59:31;;;;;;;0.00;0.00;;;;;;;13.02;81.94;100299.72;5052433;28;20511;-81
2022/12/31 06:01:57;;;;;;;0.10;0.10;;;;;;;13.05;82.69;100300.47;5053291;28;20044;-81
2022/12/31 06:04:24;;;;;;;0.10;0.10;;;;;;;13.01;83.30;100300.66;5053361;28;20033;-81
2022/12/31 06:06:50;;;;;;;0.10;0.10;;;;;;;13.06;83.04;100311.97;5053378;28;20043;-80
2022/12/31 06:09:18;;;;;;;0.10;0.10;;;;;;;13.11;82.88;100315.34;5052376;28;20056;-81
2022/12/31 06:11:44;;;;;;;0.20;0.20;;;;;;;13.16;82.66;100317.78;5062254;28;20035;-80
2022/12/31 06:14:11;;;;;;;0.10;0.10;;;;;;;13.18;82.79;100321.28;5066033;28;20028;-79
2022/12/31 06:16:39;;;;;;;0.10;0.10;;;;;;;13.18;83.00;100322.13;5057573;28;20025;-81
2022/12/31 06:19:05;;;;;;;0.10;0.10;;;;;;;13.23;82.68;100325.50;5055353;28;20135;-80
2022/12/31 06:21:31;;;;;;;0.22;0.22;;;;;;;13.23;83.18;100325.50;5062572;28;20492;-80
2022/12/31 06:23:58;;;;;;;0.10;0.10;;;;;;;13.21;83.30;100326.50;5059919;28;20025;-80
2022/12/31 06:26:25;;;;;;;0.03;0.03;;;;;;;13.33;83.19;100330.44;5058394;28;20102;-81
2022/12/31 06:28:51;;;;;;;0.17;0.17;;;;;;;13.27;83.82;100332.44;5055477;28;20055;-81
2022/12/31 06:31:17;;;;;;;0.47;0.45;;;;;;;13.36;83.65;100330.34;5055667;28;20033;-81
2022/12/31 06:33:45;;;;;;;0.10;0.10;;;;;;;13.41;84.29;100334.56;5054668;28;20429;-80
2022/12/31 06:36:14;;;;;;;0.40;0.40;;;;;;;13.41;84.29;100323.06;5055129;28;20052;-81
2022/12/31 06:38:42;;;;;;;0.20;0.20;;;;;;;13.54;84.59;100345.56;5053813;28;20407;-81
2022/12/31 06:41:11;;;;;;;0.10;0.10;;;;;;;13.58;84.85;100320.59;5053638;28;20033;-81
2022/12/31 06:43:38;;;;;;;0.10;0.10;;;;;;;13.64;84.76;100324.78;5053434;28;20056;-82
2022/12/31 06:46:06;;;;;;;0.10;0.10;;;;;;;13.71;84.04;100314.75;5053566;28;20032;-81
2022/12/31 06:48:32;;;;;;;0.10;0.10;;;;;;;13.81;84.40;100326.75;5053693;28;20542;-80
2022/12/31 06:51:09;;;;;;;0.10;0.10;;;;;;;13.86;84.35;100315.91;5052154;28;20036;-81
2022/12/31 06:53:35;;;;;;;0.10;0.10;;;;;;;13.91;84.33;100312.09;5053635;28;20025;-81
2022/12/31 06:58:44;;;;;;;0.03;0.03;;;;;;;13.99;84.08;100324.25;5110600;27;20380;-81
2022/12/31 07:04:39;;;;;;;0.10;0.10;;;;;;;14.13;84.02;100321.88;5071384;28;20382;-81
2022/12/31 07:10:21;;;;;;;0.10;0.10;;;;;;;14.20;84.31;100349.94;5071219;28;20382;-81
2022/12/31 07:20:50;;;;;;;0.10;0.10;;;;;;;14.28;84.17;100341.66;5090657;27;20133;-81
2022/12/31 07:23:17;;;;;;;0.10;0.10;;;;;;;14.27;84.16;100349.69;5091212;28;20028;-81
2022/12/31 07:25:53;;;;;;;0.10;0.10;;;;;;;14.33;83.96;100350.31;5091359;28;20429;-81
2022/12/31 07:31:21;;;;;;;0.10;0.10;;;;;;;14.32;83.99;100351.22;5136557;27;20394;-80
2022/12/31 07:33:56;;;;;;;0.10;0.10;;;;;;;14.30;84.08;100350.41;5097588;28;20063;-81
2022/12/31 07:36:44;;;;;;;0.10;0.10;;;;;;;14.39;83.99;100343.81;5093994;28;20081;-81
2022/12/31 07:39:19;;;;;;;0.10;0.10;;;;;;;14.45;83.76;100356.88;5092500;28;20506;-81
2022/12/31 07:42:12;;;;;;;0.10;0.10;;;;;;;14.49;83.63;100360.28;5092726;28;20488;-81
2022/12/31 07:45:09;;;;;;;0.10;0.10;;;;;;;14.45;83.12;100354.22;5091665;28;20412;-81
2022/12/31 07:47:35;;;;;;;0.10;0.10;;;;;;;14.49;83.00;100355.84;5091562;28;20396;-81
2022/12/31 07:50:02;;;;;;;0.03;0.03;;;;;;;14.45;83.33;100338.22;5093754;28;20025;-81
2022/12/31 07:52:28;;;;;;;0.10;0.10;;;;;;;14.35;83.27;100366.22;5094553;28;20488;-81
2022/12/31 07:54:54;;;;;;;0.10;0.10;;;;;;;14.37;83.13;100345.69;5092030;28;20067;-81
2022/12/31 07:57:25;;;;;;;0.10;0.10;;;;;;;14.42;82.42;100357.03;5091327;28;20032;-81
2022/12/31 08:02:55;;;;;;;0.10;0.10;;;;;;;14.53;82.13;100341.41;5112175;27;20442;-81
2022/12/31 08:08:39;;;;;;;0.10;0.10;;;;;;;14.38;81.95;100366.06;5071480;28;20382;-80
2022/12/31 08:13:55;;;;;;;0.10;0.10;;;;;;;14.38;82.18;100385.59;5111312;27;20384;-81
2022/12/31 08:16:22;;;;;;;0.05;0.05;;;;;;;14.37;82.25;100383.00;5111320;28;20027;-81
2022/12/31 08:18:48;;;;;;;0.10;0.10;;;;;;;14.44;81.96;100389.78;5109145;28;20020;-81
2022/12/31 08:24:23;;;;;;;0.10;0.10;;;;;;;14.30;82.24;100445.50;5112552;27;20376;-81
2022/12/31 08:27:12;;;;;;;0.00;0.00;;;;;;;14.34;82.16;100455.97;5112164;28;20027;-82
2022/12/31 08:32:31;;;;;;;0.10;0.10;;;;;;;14.23;82.66;100440.44;5108524;27;21216;-79
2022/12/31 08:40:48;;;;;;;0.10;0.10;;;;;;;14.30;83.02;100448.16;5087532;27;20412;-80
2022/12/31 08:45:53;;;;;;;0.10;0.10;;;;;;;14.35;82.68;100464.81;5136239;27;20669;-80
2022/12/31 08:48:40;;;;;;;0.10;0.10;;;;;;;14.39;82.62;100447.75;5089043;28;20041;-80
2022/12/31 08:51:12;;;;;;;0.10;0.10;;;;;;;14.30;83.02;100456.16;5090471;28;20273;-81
2022/12/31 08:53:38;;;;;;;0.43;0.43;;;;;;;14.37;82.70;100484.28;5088563;28;20047;-81
2022/12/31 08:56:12;;;;;;;0.20;0.20;;;;;;;14.37;82.98;100500.28;5090505;28;20082;-80
2022/12/31 08:59:18;;;;;;;0.10;0.10;;;;;;;14.50;82.81;100480.16;5069572;28;20028;-81
2022/12/31 09:07:36;;;;;;;0.08;0.08;;;;;;;14.52;82.75;100472.13;5119318;27;20767;-80
2022/12/31 09:10:16;;;;;;;0.13;0.13;;;;;;;14.60;82.58;100474.44;5112050;27;20024;-80
2022/12/31 09:16:04;;;;;;;0.10;0.10;;;;;;;14.60;82.46;100477.13;5061791;27;20180;-82
2022/12/31 09:18:37;;;;;;;0.10;0.10;;;;;;;14.60;82.73;100475.31;5061108;28;20052;-82
2022/12/31 09:21:03;;;;;;;0.10;0.10;;;;;;;14.66;82.67;100480.41;5062454;28;20050;-80
2022/12/31 09:23:30;;;;;;;0.10;0.10;;;;;;;14.64;82.68;100473.38;5065585;28;20086;-80
2022/12/31 09:26:20;;;;;;;0.10;0.10;;;;;;;14.73;82.27;100470.38;5068233;28;20025;-81
2022/12/31 09:29:01;;;;;;;0.10;0.10;;;;;;;14.80;82.26;100479.81;5050707;28;20075;-79
2022/12/31 09:31:39;;;;;;;0.20;0.20;;;;;;;14.78;82.11;100476.38;5071715;28;20043;-80
2022/12/31 09:34:21;;;;;;;1.25;1.25;;;;;;;14.88;81.86;100479.50;5066329;28;20048;-80
2022/12/31 09:36:56;;;;;;;0.00;0.00;;;;;;;14.86;81.89;100471.53;5067309;28;20061;-80
2022/12/31 09:39:46;;;;;;;0.10;0.10;;;;;;;14.98;81.74;100491.50;5063156;28;20037;-81
2022/12/31 09:42:46;;;;;;;0.10;0.10;;;;;;;15.01;81.85;100506.50;5059775;28;20036;-81
2022/12/31 09:48:25;;;;;;;0.10;0.10;;;;;;;15.12;81.86;100496.22;5107174;27;20141;-79
2022/12/31 09:56:32;;;;;;;0.10;0.10;;;;;;;15.24;81.26;100508.16;5112296;27;20388;-80
2022/12/31 10:01:49;;;;;;;0.10;0.10;;;;;;;15.35;81.10;100507.66;5110584;27;20143;-80
2022/12/31 10:10:15;;;;;;;0.00;0.00;;;;;;;15.56;80.69;100513.81;5063699;28;20431;-81
2022/12/31 10:18:36;;;;;;;0.10;0.10;;;;;;;15.52;81.54;100518.41;5110133;27;20554;-81
2022/12/31 10:21:42;;;;;;;0.10;0.10;;;;;;;15.50;81.49;100522.97;5107136;28;20078;-80
2022/12/31 10:29:56;;;;;;;0.30;0.30;;;;;;;15.60;81.65;100526.09;5112049;27;20392;-79
2022/12/31 10:35:35;;;;;;;0.10;0.10;;;;;;;15.70;81.62;100523.84;5083616;27;1857844;-79
2022/12/31 10:43:51;;;;;;;0.00;0.00;;;;;;;15.77;80.42;100524.44;5112343;27;20342;-80
2022/12/31 10:46:35;;;;;;;0.10;0.10;;;;;;;15.72;80.88;100538.00;5083083;28;20040;-77
2022/12/31 10:49:32;;;;;;;1.88;1.73;;;;;;;15.73;80.82;100555.78;5089001;28;20025;-78
2022/12/31 10:52:37;;;;;;;0.10;0.10;;;;;;;15.79;80.80;100526.09;5086057;28;20021;-78
2022/12/31 11:12:10;;;;;;;0.10;0.10;;;;;;;15.67;82.11;100550.72;5082838;27;1871363;-80
2022/12/31 11:17:37;;;;;;;0.20;0.20;;;;;;;15.67;82.08;100548.88;5155145;27;20413;-80
2022/12/31 11:23:25;;;;;;;0.50;0.50;;;;;;;15.88;81.15;100551.53;5165870;27;20339;-82
2022/12/31 11:26:05;;;;;;;0.22;0.10;;;;;;;15.79;81.40;100536.78;5153634;27;20094;-82
2022/12/31 11:34:43;;;;;;;0.50;0.50;;;;;;;15.97;80.24;100527.06;5112719;27;20409;-80
2022/12/31 11:37:38;;;;;;;0.10;0.10;;;;;;;15.96;80.04;100544.06;5079949;28;20436;-81
2022/12/31 11:40:20;;;;;;;0.10;0.10;;;;;;;15.97;80.34;100534.22;5077463;28;20085;-80
2022/12/31 11:43:03;;;;;;;0.17;0.17;;;;;;;15.91;80.25;100532.69;5078506;28;20361;-80
2022/12/31 11:48:23;;;;;;;0.10;0.10;;;;;;;15.89;79.82;100545.28;5087081;28;20359;-80
2022/12/31 11:51:29;;;;;;;0.15;0.15;;;;;;;16.01;79.22;100514.41;5085980;28;20447;-80
2022/12/31 11:57:31;;;;;;;0.25;0.25;;;;;;;15.97;79.13;100513.69;5160442;27;20364;-80
2022/12/31 12:00:00;;;;;;;0.10;0.10;;;;;;;15.92;79.42;100501.50;5150856;27;20038;-81
2022/12/31 12:02:33;;;;;;;0.10;0.10;;;;;;;15.99;79.08;100509.16;5158420;27;20031;-81
2022/12/31 12:05:01;;;;;;;0.10;0.10;;;;;;;16.04;79.17;100503.59;5128728;27;20035;-81
2022/12/31 12:07:29;;;;;;;0.10;0.10;;;;;;;15.87;79.20;100511.56;5130154;27;20027;-81
2022/12/31 12:10:00;;;;;;;0.08;0.08;;;;;;;15.82;79.54;100517.09;5127946;27;20490;-81
2022/12/31 12:12:38;;;;;;;0.10;0.10;;;;;;;15.91;79.48;100507.78;5133863;27;20080;-81
2022/12/31 12:15:08;;;;;;;0.10;0.10;;;;;;;15.80;79.63;100501.13;5131247;27;20553;-81
2022/12/31 12:17:35;;;;;;;0.10;0.10;;;;;;;15.78;79.67;100508.34;5144886;27;20031;-81
2022/12/31 12:20:13;;;;;;;0.00;0.00;;;;;;;15.87;79.32;100495.53;5143091;27;20030;-81
2022/12/31 12:22:52;;;;;;;0.10;0.10;;;;;;;15.84;79.32;100481.38;5129541;27;20023;-81
2022/12/31 12:25:21;;;;;;;0.10;0.10;;;;;;;15.80;79.33;100513.59;5145748;27;20046;-81
2022/12/31 12:27:47;;;;;;;0.10;0.10;;;;;;;15.84;78.93;100508.06;5132701;27;20105;-81
2022/12/31 12:30:28;;;;;;;0.10;0.10;;;;;;;15.87;79.04;100506.22;5141196;27;20035;-80
2022/12/31 12:32:57;;;;;;;0.32;0.32;;;;;;;16.01;78.10;100498.38;5128182;27;20080;-80
2022/12/31 12:35:27;;;;;;;0.10;0.10;;;;;;;15.73;79.54;100515.69;5138369;27;20401;-80
2022/12/31 12:38:03;;;;;;;0.03;0.03;;;;;;;15.98;78.50;100514.56;5118967;27;20026;-81
2022/12/31 12:40:31;;;;;;;0.00;0.00;;;;;;;15.94;78.85;100515.69;5134301;27;20084;-79
2022/12/31 12:42:57;;;;;;;0.10;0.10;;;;;;;15.94;78.39;100529.03;5131585;28;20423;-79
2022/12/31 12:45:27;;;;;;;0.10;0.10;;;;;;;15.90;78.34;100530.09;5135879;28;20076;-79
2022/12/31 12:47:57;;;;;;;0.22;0.22;;;;;;;15.96;78.62;100516.44;5135848;27;20045;-79
2022/12/31 12:50:33;;;;;;;0.00;0.00;;;;;;;15.91;77.97;100527.34;5141799;27;20027;-80
2022/12/31 13:01:31;;;;;;;0.10;0.10;;;;;;;15.96;77.92;100506.66;5148968;27;20766;-80
2022/12/31 13:04:37;;;;;;;0.10;0.10;;;;;;;15.95;77.90;100520.06;5119863;27;20036;-80
2022/12/31 13:10:14;;;;;;;0.10;0.10;;;;;;;15.78;78.70;100513.69;5062306;28;20727;-80
2022/12/31 13:12:53;;;;;;;0.00;0.00;;;;;;;15.74;78.72;100530.78;5044499;28;20033;-80
2022/12/31 13:15:45;;;;;;;0.22;0.22;;;;;;;15.73;79.08;100542.41;5045574;28;20033;-80
2022/12/31 13:21:01;;;;;;;0.10;0.10;;;;;;;15.70;79.12;100545.22;5106205;27;20405;-80
2022/12/31 13:23:52;;;;;;;0.10;0.10;;;;;;;15.70;79.34;100534.53;5086890;28;20028;-80
2022/12/31 13:26:30;;;;;;;0.10;0.10;;;;;;;15.77;79.02;100544.00;5090121;28;20543;-80
2022/12/31 13:28:59;;;;;;;0.10;0.10;;;;;;;15.69;79.13;100543.50;5096721;28;20024;-80
2022/12/31 13:31:34;;;;;;;0.10;0.10;;;;;;;15.63;79.34;100551.78;5105882;28;20032;-79
2022/12/31 13:34:05;;;;;;;0.20;0.20;;;;;;;15.60;79.58;100562.59;5100535;28;20024;-80
2022/12/31 13:36:36;;;;;;;0.10;0.10;;;;;;;15.59;79.60;100535.03;5100310;28;20035;-80
2022/12/31 13:39:11;;;;;;;0.10;0.10;;;;;;;15.69;79.36;100551.50;5098892;28;20043;-80
2022/12/31 13:41:48;;;;;;;0.10;0.10;;;;;;;15.66;79.15;100554.31;5096199;28;20043;-80
2022/12/31 13:44:44;;;;;;;0.10;0.10;;;;;;;15.71;79.08;100549.63;5106008;28;20028;-80
2022/12/31 13:47:19;;;;;;;1.30;0.50;;;;;;;15.69;79.28;100535.50;5095893;28;20100;-80
2022/12/31 13:49:52;;;;;;;0.10;0.10;;;;;;;15.65;79.38;100552.56;5095545;28;20048;-80
2022/12/31 13:52:34;;;;;;;0.20;0.20;;;;;;;15.65;79.32;100552.56;5101520;28;20100;-80
2022/12/31 13:55:23;;;;;;;0.10;0.10;;;;;;;15.62;79.34;100542.91;5101615;28;20028;-80
2022/12/31 13:58:12;;;;;;;0.10;0.10;;;;;;;15.47;80.08;100546.28;5115571;28;20592;-80
2022/12/31 14:08:39;;;;;;;0.20;0.20;;;;;;;15.40;80.44;100550.16;5105136;27;20404;-80
2022/12/31 14:11:20;;;;;;;0.10;0.10;;;;;;;15.42;80.18;100575.00;5115478;27;20030;-80
2022/12/31 14:14:14;;;;;;;1.73;0.63;;;;;;;15.36;80.44;100581.47;5107902;28;20028;-80
2022/12/31 14:20:05;;;;;;;1.17;1.17;;;;;;;15.41;80.18;100571.44;5071168;28;20387;-81
2022/12/31 14:25:27;;;;;;;0.10;0.10;;;;;;;15.28;80.66;100575.59;5108211;27;20392;-83
2022/12/31 14:27:56;;;;;;;0.75;0.75;;;;;;;15.31;80.23;100562.13;5098805;28;20130;-83
2022/12/31 14:30:29;;;;;;;0.85;0.85;;;;;;;15.24;80.49;100561.53;5087864;28;20016;-83
2022/12/31 14:38:51;;;;;;;0.10;0.10;;;;;;;15.37;79.68;100556.50;5123754;27;20387;-80
2022/12/31 14:41:33;;;;;;;0.20;0.20;;;;;;;15.38;78.99;100566.25;5108787;28;20097;-79
2022/12/31 14:44:25;;;;;;;0.10;0.10;;;;;;;15.30;79.00;100581.72;5111708;28;20107;-79
2022/12/31 14:47:19;;;;;;;0.10;0.10;;;;;;;15.35;78.90;100563.69;5104825;28;20269;-79
2022/12/31 14:50:08;;;;;;;0.08;0.08;;;;;;;15.30;78.36;100582.63;5122420;27;20507;-79
2022/12/31 14:52:56;;;;;;;0.20;0.20;;;;;;;15.32;78.34;100593.22;5110706;28;20035;-79
2022/12/31 14:55:28;;;;;;;0.10;0.10;;;;;;;15.20;78.17;100599.94;5112677;28;20042;-79
2022/12/31 14:57:55;;;;;;;0.65;0.65;;;;;;;15.38;77.15;100568.91;5111910;28;20037;-79
2022/12/31 15:06:36;;;;;;;0.10;0.10;;;;;;;15.46;76.54;100581.91;5094855;27;20183;-80